Flight Track Log - Related Links

Times and Time Zones

All times are in EDT time to prevent confusion due to time zone crossing. See the AAL1554 flight status page for this flight to view local times or setup timezone preferences in your user account.

Time Position Orientation Groundspeed Altitude Reporting Facility
EDT Latitude Longitude Course Direction KTS MPH feet Rate Location/Type
Thu 08:32:42 PM 32.8570 -97.0280 169° South 181 208 2,200  Level FlightAware ADS-B
Thu 08:33:09 PM 32.8350 -97.0190 161° South 205 236 2,800 1,263 Climbing FlightAware ADS-B
Thu 08:33:39 PM 32.8060 -97.0060 159° South 241 277 3,400 1,700 Climbing FlightAware ADS-B
Thu 08:34:09 PM 32.7780 -96.9820 144° Southeast 256 295 4,500 2,250 Climbing FlightAware ADS-B
Thu 08:34:19 PM 32.7740 -96.9700 112° Southeast 261 300 4,900 2,400 Climbing FlightAware ADS-B
Thu 08:34:49 PM 32.7650 -96.9270 104° East 270 311 6,100 2,417 Climbing FlightAware ADS-B
Thu 08:35:31 PM 32.7810 -96.8620 74° East 284 327 7,800 2,441 Climbing FlightAware ADS-B
Thu 08:35:48 PM 32.7890 -96.8390 68° East 284 327 8,500 2,634 Climbing FlightAware ADS-B
Thu 08:36:12 PM 32.8020 -96.8040 66° East 283 326 9,600 1,970 Climbing FlightAware ADS-B
Thu 08:36:55 PM 32.8250 -96.7410 67° East 309 356 10,700 1,295 Climbing FlightAware ADS-B
Thu 08:37:40 PM 32.8520 -96.6650 67° East 348 400 11,500 1,200 Climbing FlightAware ADS-B
Thu 08:38:20 PM 32.8770 -96.5930 68° East 373 429 12,400 1,643 Climbing FlightAware ADS-B
Thu 08:39:04 PM 32.9080 -96.5070 67° East 387 445 13,800 1,952 Climbing FlightAware ADS-B
Thu 08:39:43 PM 32.9360 -96.4290 67° East 399 459 15,100 2,169 Climbing FlightAware ADS-B
Thu 08:40:27 PM 32.9670 -96.3380 68° East 406 467 16,800 2,188 Climbing FlightAware ADS-B
Thu 08:41:08 PM 32.9820 -96.2490 79° East 411 473 18,200 1,975 Climbing FlightAware ADS-B
Thu 08:41:46 PM 32.9930 -96.1690 81° East 419 482 19,400 1,952 Climbing FlightAware ADS-B
Thu 08:42:31 PM 33.0080 -96.0580 81° East 428 493 20,900 1,814 Climbing FlightAware ADS-B
Thu 08:43:12 PM 33.0210 -95.9630 81° East 439 505 22,000 1,624 Climbing FlightAware ADS-B
Thu 08:43:56 PM 33.0360 -95.8560 80° East 448 516 23,200 1,605 Climbing FlightAware ADS-B
Thu 08:44:38 PM 33.0490 -95.7570 81° East 454 522 24,300 1,571 Climbing FlightAware ADS-B
Thu 08:45:20 PM 33.0630 -95.6490 81° East 461 531 25,400 1,446 Climbing FlightAware ADS-B
Thu 08:46:01 PM 33.0780 -95.5570 79° East 468 539 26,300 1,595 Climbing FlightAware ADS-B
Thu 08:46:39 PM 33.1090 -95.4510 71° East 468 539 27,500 1,624 Climbing FlightAware ADS-B
Thu 08:47:26 PM 33.1410 -95.3420 71° East 470 541 28,600 1,724 Climbing FlightAware ADS-B
Thu 08:48:06 PM 33.1710 -95.2430 70° East 463 533 30,000 1,835 Climbing FlightAware ADS-B
Thu 08:48:51 PM 33.2040 -95.1330 70° East 459 528 31,200 828 Climbing FlightAware ADS-B
Thu 08:49:33 PM 33.2290 -95.0510 70° East 459 528 31,200  Level FlightAware ADS-B
Thu 08:50:09 PM 33.2510 -94.9780 70° East 459 528 31,200 2,000 Level FlightAware ADS-B
Thu 08:50:54 PM 33.2900 -94.8410 71° East 460 529 33,900 2,386 Climbing FlightAware ADS-B
Thu 08:51:32 PM 33.3170 -94.7510 70° East 462 532 34,500 963 Climbing FlightAware ADS-B
Thu 08:52:15 PM 33.3480 -94.6450 71° East 465 535 35,200 539 Climbing FlightAware ADS-B
Thu 08:53:01 PM 33.3760 -94.5530 70° East 466 536 35,300 551 Climbing FlightAware ADS-B
Thu 08:53:53 PM 33.4150 -94.4190 71° East 473 544 36,100 485 Climbing FlightAware ADS-B
Thu 08:54:40 PM 33.4450 -94.3200 70° East 473 544 36,100  Level FlightAware ADS-B
Thu 08:55:17 PM 33.4680 -94.2430 70° East 473 544 36,100  Level FlightAware ADS-B
Thu 08:55:55 PM 33.4920 -94.1630 70° East 473 544 36,100  Level FlightAware ADS-B
Thu 08:56:44 PM 33.5240 -94.0610 69° East 473 544 36,100 593 Level FlightAware ADS-B
Thu 08:57:26 PM 33.5870 -93.8860 67° East 476 548 37,000 857 Climbing FlightAware ADS-B
Thu 08:57:47 PM 33.6069 -93.8342 65° Northeast 476 548 37,000  Level FlightAware ADS-B
Thu 08:58:41 PM 33.6460 -93.7330 65° Northeast 476 548 37,000  Level FlightAware ADS-B
Thu 08:59:29 PM 33.6840 -93.6350 65° Northeast 476 548 37,000  Level FlightAware ADS-B
Thu 09:00:15 PM 33.7210 -93.5410 65° Northeast 476 548 37,000  Level FlightAware ADS-B
Thu 09:00:56 PM 33.7530 -93.4580 65° Northeast 476 548 37,000  Level FlightAware ADS-B
Thu 09:01:30 PM 33.7800 -93.3880 65° Northeast 476 548 37,000  Level FlightAware ADS-B
Thu 09:02:21 PM 33.8200 -93.2840 65° Northeast 476 548 37,000  Level FlightAware ADS-B
Thu 09:02:58 PM 33.8500 -93.2080 65° Northeast 476 548 37,000  Level FlightAware ADS-B
Thu 09:03:46 PM 33.8880 -93.1100 65° Northeast 476 548 37,000  Level FlightAware ADS-B
Thu 09:04:25 PM 33.9180 -93.0310 65° Northeast 476 548 37,000  Level FlightAware ADS-B
Thu 09:04:59 PM 33.9450 -92.9610 65° Northeast 476 548 37,000  Level FlightAware ADS-B
Thu 09:05:59 PM 33.9930 -92.8380 65° Northeast 476 548 37,000  Level FlightAware ADS-B
Thu 09:06:46 PM 34.0300 -92.7420 65° Northeast 476 548 37,000  Level FlightAware ADS-B
Thu 09:07:22 PM 34.0580 -92.6680 65° Northeast 476 548 37,000  Level FlightAware ADS-B
Thu 09:07:44 PM 33.9536 -92.3981 65° Northeast 456 525 37,000  Level Memphis Center
Thu 09:08:44 PM 34.0100 -92.2592 64° Northeast 461 531 37,000  Level Memphis Center
Thu 09:09:44 PM 34.0664 -92.1175 64° Northeast 461 531 37,000  Level Memphis Center
Thu 09:10:44 PM 34.1206 -91.9781 65° Northeast 461 531 37,000 -50 Level Memphis Center
Thu 09:11:44 PM 34.1722 -91.8458 65° Northeast 454 522 36,900  Descending Memphis Center
Thu 09:12:44 PM 34.2325 -91.6936 64° Northeast 447 514 37,000 50 Climbing Memphis Center
Thu 09:13:44 PM 34.2881 -91.5539 64° Northeast 440 506 37,000  Level Memphis Center
Thu 09:14:44 PM 34.3436 -91.4161 64° Northeast 451 519 37,000  Level Memphis Center
Thu 09:15:44 PM 34.3969 -91.2758 65° Northeast 451 519 37,000  Level Memphis Center
Thu 09:16:44 PM 34.4519 -91.1431 63° Northeast 446 513 37,000  Level Memphis Center
Thu 09:17:44 PM 34.4986 -91.0200 65° Northeast 441 507 37,000  Level Memphis Center
Thu 09:18:44 PM 34.5514 -90.8817 65° Northeast 441 507 37,000  Level Memphis Center
Thu 09:19:44 PM 34.6042 -90.7431 65° Northeast 441 507 37,000  Level Memphis Center
Thu 09:20:44 PM 34.6586 -90.6044 64° Northeast 441 507 37,000  Level Memphis Center
Thu 09:21:44 PM 34.7131 -90.4633 65° Northeast 441 507 37,000  Level Memphis Center
Thu 09:22:44 PM 34.7653 -90.3294 65° Northeast 441 507 37,000  Level Memphis Center
Thu 09:23:44 PM 34.8236 -90.1750 65° Northeast 441 507 37,000  Level Memphis Center
Thu 09:24:44 PM 34.8775 -90.0381 64° Northeast 443 510 37,000  Level Memphis Center
Thu 09:25:44 PM 34.9333 -89.8936 65° Northeast 448 516 37,000  Level Memphis Center
Thu 09:26:44 PM 34.9933 -89.7461 64° Northeast 459 528 37,000  Level Memphis Center
Thu 09:27:44 PM 35.0322 -89.6167 70° East 464 534 37,000  Level Memphis Center
Thu 09:28:44 PM 35.0833 -89.4764 66° East 452 520 37,000  Level Memphis Center
Thu 09:29:44 PM 35.1367 -89.3339 65° Northeast 452 520 37,000  Level Memphis Center
Thu 09:30:44 PM 35.1894 -89.1883 66° East 460 529 37,000  Level Memphis Center
Thu 09:31:44 PM 35.2403 -89.0453 66° East 460 529 37,000  Level Memphis Center
Thu 09:32:44 PM 35.2969 -88.8892 66° East 460 529 37,000  Level Memphis Center
Thu 09:38:38 PM 35.5860 -88.0840 66° East 444 511 37,000  Level FlightAware ADS-B
Thu 09:39:18 PM 35.6150 -88.0050 66° East 444 511 37,000  Level FlightAware ADS-B
Thu 09:40:19 PM 35.6740 -87.8360 67° East 443 510 37,000  Level FlightAware ADS-B
Thu 09:40:53 PM 35.6980 -87.7690 66° East 443 510 37,000  Level FlightAware ADS-B
Thu 09:41:39 PM 35.7410 -87.6430 67° East 443 510 37,000  Level FlightAware ADS-B
Thu 09:42:25 PM 35.7780 -87.5360 67° East 446 513 37,000  Level FlightAware ADS-B
Thu 09:43:07 PM 35.8120 -87.4380 67° East 448 516 37,000  Level FlightAware ADS-B
Thu 09:43:45 PM 35.8440 -87.3470 67° East 450 518 37,000  Level FlightAware ADS-B
Thu 09:44:31 PM 35.8814 -87.2378 67° East 455 524 37,000  Level FlightAware ADS-B
Thu 09:45:01 PM 35.9063 -87.1659 67° East 457 526 37,000  Level FlightAware ADS-B
Thu 09:45:31 PM 35.9313 -87.0931 67° East 457 526 37,000  Level FlightAware ADS-B
Thu 09:46:02 PM 35.9564 -87.0200 67° East 459 528 37,000  Level FlightAware ADS-B
Thu 09:46:32 PM 35.9819 -86.9456 67° East 467 537 37,000  Level FlightAware ADS-B
Thu 09:47:03 PM 36.0073 -86.8705 67° East 470 541 37,000  Level FlightAware ADS-B
Thu 09:47:33 PM 36.0325 -86.7962 67° East 471 542 37,000  Level FlightAware ADS-B
Thu 09:48:03 PM 36.0577 -86.7217 67° East 470 541 37,000  Level FlightAware ADS-B
Thu 09:48:36 PM 36.0851 -86.6406 67° East 469 540 37,000  Level FlightAware ADS-B
Thu 09:49:06 PM 36.1103 -86.5656 67° East 467 537 37,000  Level FlightAware ADS-B
Thu 09:49:37 PM 36.1363 -86.4888 67° East 465 535 37,000  Level FlightAware ADS-B
Thu 09:50:08 PM 36.1613 -86.4145 67° East 462 532 37,000  Level FlightAware ADS-B
Thu 09:50:38 PM 36.1859 -86.3404 68° East 459 528 37,000  Level FlightAware ADS-B
Thu 09:51:09 PM 36.2107 -86.2652 68° East 458 527 37,000  Level FlightAware ADS-B
Thu 09:52:20 PM 36.2666 -86.0975 67° East 451 519 37,000  Level FlightAware ADS-B
Thu 09:52:50 PM 36.2905 -86.0258 68° East 449 517 37,000  Level FlightAware ADS-B
Thu 09:53:20 PM 36.3140 -85.9542 68° East 449 517 37,000  Level FlightAware ADS-B
Thu 09:53:57 PM 36.3430 -85.8666 68° East 448 516 37,000  Level FlightAware ADS-B
Thu 09:54:28 PM 36.3668 -85.7942 68° East 447 514 37,000  Level FlightAware ADS-B
Thu 09:55:26 PM 36.4119 -85.6567 68° East 446 513 37,000  Level FlightAware ADS-B
Thu 09:55:56 PM 36.4353 -85.5851 68° East 445 512 37,000  Level FlightAware ADS-B
Thu 09:56:27 PM 36.4589 -85.5129 68° East 446 513 37,000  Level FlightAware ADS-B
Thu 09:56:58 PM 36.4827 -85.4390 68° East 447 514 37,000  Level FlightAware ADS-B
Thu 09:57:46 PM 36.5198 -85.3239 68° East 447 514 37,000  Level FlightAware ADS-B
Thu 09:58:17 PM 36.5433 -85.2511 68° East 446 513 37,000  Level FlightAware ADS-B
Thu 09:58:52 PM 36.5705 -85.1670 68° East 446 513 37,000  Level FlightAware ADS-B
Thu 09:59:22 PM 36.5936 -85.0952 68° East 452 520 37,000  Level FlightAware ADS-B
Thu 10:00:01 PM 36.6238 -85.0006 68° East 456 525 37,000  Level FlightAware ADS-B
Thu 10:00:33 PM 36.6483 -84.9233 68° East 458 527 37,000  Level FlightAware ADS-B
Thu 10:01:04 PM 36.6723 -84.8479 68° East 459 528 37,000  Level FlightAware ADS-B
Thu 10:01:38 PM 36.6987 -84.7648 68° East 459 528 37,000  Level FlightAware ADS-B
Thu 10:02:14 PM 36.7269 -84.6758 68° East 460 529 37,000  Level FlightAware ADS-B
Thu 10:02:44 PM 36.7505 -84.6007 69° East 460 529 37,000  Level FlightAware ADS-B
Thu 10:03:16 PM 36.7750 -84.5228 69° East 460 529 37,000  Level FlightAware ADS-B
Thu 10:03:46 PM 36.7983 -84.4486 69° East 460 529 37,000  Level FlightAware ADS-B
Thu 10:04:16 PM 36.8213 -84.3745 69° East 460 529 37,000  Level FlightAware ADS-B
Thu 10:04:46 PM 36.8447 -84.2997 69° East 464 534 37,000  Level FlightAware ADS-B
Thu 10:05:16 PM 36.8688 -84.2234 68° East 477 549 37,000  Level FlightAware ADS-B
Thu 10:05:46 PM 36.8928 -84.1459 69° East 483 556 37,000  Level FlightAware ADS-B
Thu 10:06:17 PM 36.9174 -84.0655 69° East 484 557 37,000  Level FlightAware ADS-B
Thu 10:06:49 PM 36.9424 -83.9837 69° East 486 559 37,000  Level FlightAware ADS-B
Thu 10:07:30 PM 36.9757 -83.8754 69° East 487 560 37,000  Level FlightAware ADS-B
Thu 10:08:00 PM 37.0005 -83.7957 69° East 490 564 37,000  Level FlightAware ADS-B
Thu 10:08:37 PM 37.0297 -83.7002 69° East 490 564 37,000  Level FlightAware ADS-B
Thu 10:09:10 PM 37.0567 -83.6116 69° East 490 564 37,000  Level FlightAware ADS-B
Thu 10:09:40 PM 37.0812 -83.5310 69° East 491 565 37,000  Level FlightAware ADS-B
Thu 10:10:11 PM 37.1060 -83.4491 69° East 493 567 37,000  Level FlightAware ADS-B
Thu 10:10:43 PM 37.1313 -83.3654 69° East 496 571 37,000  Level FlightAware ADS-B
Thu 10:11:13 PM 37.1562 -83.2827 69° East 499 574 37,000  Level FlightAware ADS-B
Thu 10:11:44 PM 37.1809 -83.2001 69° East 502 578 37,000  Level FlightAware ADS-B
Thu 10:12:20 PM 37.2108 -83.1001 69° East 504 580 37,000  Level FlightAware ADS-B
Thu 10:12:53 PM 37.2374 -83.0107 69° East 507 583 37,000  Level FlightAware ADS-B
Thu 10:13:58 PM 37.2905 -82.8321 69° East 506 582 37,000  Level FlightAware ADS-B
Thu 10:14:42 PM 37.3262 -82.7108 70° East 502 578 37,000  Level FlightAware ADS-B
Thu 10:15:14 PM 37.3519 -82.6236 70° East 504 580 37,000  Level FlightAware ADS-B
Thu 10:15:45 PM 37.3762 -82.5402 70° East 505 581 37,000  Level FlightAware ADS-B
Thu 10:16:21 PM 37.4052 -82.4412 70° East 505 581 37,000  Level FlightAware ADS-B
Thu 10:17:07 PM 37.4429 -82.3120 70° East 507 583 37,000  Level FlightAware ADS-B
Thu 10:17:50 PM 37.4769 -82.1943 70° East 507 583 37,000  Level FlightAware ADS-B
Thu 10:18:22 PM 37.5023 -82.1062 70° East 507 583 37,000  Level FlightAware ADS-B
Thu 10:18:53 PM 37.5268 -82.0210 70° East 499 574 37,000  Level FlightAware ADS-B
Thu 10:19:35 PM 37.5590 -81.9080 70° East 494 568 37,000  Level FlightAware ADS-B
Thu 10:20:02 PM 37.5799 -81.8351 70° East 487 560 37,000  Level FlightAware ADS-B
Thu 10:20:59 PM 37.6230 -81.6840 70° East 488 562 37,000  Level FlightAware ADS-B
Thu 10:21:38 PM 37.6530 -81.5790 70° East 488 562 37,000  Level FlightAware ADS-B
Thu 10:22:03 PM 37.6717 -81.5119 71° East 488 562 37,000  Level FlightAware ADS-B
Thu 10:22:51 PM 37.7082 -81.3824 70° East 488 562 37,000  Level FlightAware ADS-B
Thu 10:23:46 PM 37.7490 -81.2350 71° East 488 562 37,000  Level FlightAware ADS-B
Thu 10:24:26 PM 37.7770 -81.1290 71° East 488 562 37,000  Level FlightAware ADS-B
Thu 10:25:10 PM 37.7940 -81.0030 80° East 499 574 37,000  Level FlightAware ADS-B
Thu 10:25:26 PM 37.7998 -80.9552 81° East 500 575 37,000  Level FlightAware ADS-B
Thu 10:26:41 PM 37.8249 -80.7381 82° East 501 577 37,000  Level FlightAware ADS-B
Thu 10:27:13 PM 37.8360 -80.6430 82° East 511 588 37,000  Level FlightAware ADS-B
Thu 10:27:57 PM 37.8500 -80.5130 82° East 514 592 37,000  Level FlightAware ADS-B
Thu 10:28:41 PM 37.8710 -80.3850 78° East 517 595 37,000  Level FlightAware ADS-B
Thu 10:29:21 PM 37.9110 -80.2730 66° East 518 596 37,000  Level FlightAware ADS-B
Thu 10:30:05 PM 37.9560 -80.1550 64° Northeast 518 596 37,000  Level FlightAware ADS-B
Thu 10:30:13 PM 37.9640 -80.1350 63° Northeast 517 595 37,000  Level FlightAware ADS-B
Thu 10:31:25 PM 38.0410 -79.9370 64° Northeast 520 598 37,000  Level FlightAware ADS-B
Thu 10:32:11 PM 38.0880 -79.8150 64° Northeast 521 600 37,000  Level FlightAware ADS-B
Thu 10:32:49 PM 38.1290 -79.7080 64° Northeast 521 600 37,000 -220 Level FlightAware ADS-B
Thu 10:34:00 PM 38.2030 -79.5150 64° Northeast 519 597 36,600 -1,243 Descending FlightAware ADS-B
Thu 10:34:40 PM 38.2440 -79.4080 64° Northeast 525 604 34,700 -3,075 Descending FlightAware ADS-B
Thu 10:35:20 PM 38.2790 -79.2890 69° East 530 610 32,500 -2,850 Descending FlightAware ADS-B
Thu 10:36:00 PM 38.3090 -79.1730 72° East 514 592 30,900 -2,259 Descending FlightAware ADS-B
Thu 10:36:45 PM 38.3410 -79.0490 72° East 484 557 29,300 -2,163 Descending FlightAware ADS-B
Thu 10:37:26 PM 38.3700 -78.9360 72° East 475 547 27,800 -1,976 Descending FlightAware ADS-B
Thu 10:38:07 PM 38.3990 -78.8260 71° East 461 531 26,600 -1,500 Descending FlightAware ADS-B
Thu 10:38:50 PM 38.4270 -78.7150 72° East 451 519 25,700 -1,229 Descending FlightAware ADS-B
Thu 10:39:30 PM 38.4520 -78.6180 72° East 441 507 24,900 -1,186 Descending FlightAware ADS-B
Thu 10:40:16 PM 38.4820 -78.5020 72° East 438 504 24,000 -962 Descending FlightAware ADS-B
Thu 10:43:52 PM 38.5850 -78.0910 72° East 421 484 20,700 -1,140 Descending FlightAware ADS-B
Thu 10:44:34 PM 38.6360 -77.8830 73° East 413 475 19,100 -1,214 Descending FlightAware ADS-B
Thu 10:45:16 PM 38.6460 -77.7820 83° East 410 472 19,000 -628 Descending FlightAware ADS-B
Thu 10:46:00 PM 38.6530 -77.6770 85° East 406 467 18,200 -929 Descending FlightAware ADS-B
Thu 10:46:40 PM 38.6580 -77.5990 85° East 404 465 17,700 -947 Descending FlightAware ADS-B
Thu 10:47:16 PM 38.6640 -77.4950 86° East 400 460 17,000 -977 Descending FlightAware ADS-B
Thu 10:48:06 PM 38.6710 -77.3800 86° East 384 442 16,300 -667 Descending FlightAware ADS-B
Thu 10:48:46 PM 38.6760 -77.2930 86° East 353 406 16,000 -1,171 Descending FlightAware ADS-B
Thu 10:49:28 PM 38.6800 -77.2070 87° East 354 407 14,700 -1,744 Descending FlightAware ADS-B
Thu 10:50:12 PM 38.6860 -77.1150 85° East 350 403 13,500 -1,586 Descending FlightAware ADS-B
Thu 10:50:55 PM 38.6900 -77.0280 87° East 343 395 12,400 -1,425 Descending FlightAware ADS-B
Thu 10:51:32 PM 38.6940 -76.9540 86° East 334 384 11,600 -1,280 Descending FlightAware ADS-B
Thu 10:52:10 PM 38.6990 -76.8800 85° East 323 372 10,800 -1,227 Descending FlightAware ADS-B
Thu 10:53:00 PM 38.7040 -76.7840 86° East 313 360 9,800 -1,200 Descending FlightAware ADS-B
Thu 10:53:25 PM 38.7090 -76.7420 81° East 304 350 9,300 -1,269 Descending FlightAware ADS-B
Thu 10:53:52 PM 38.7260 -76.6980 64° Northeast 295 339 8,700 -1,220 Descending FlightAware ADS-B
Thu 10:54:24 PM 38.7470 -76.6500 61° Northeast 290 334 8,100 -1,227 Descending FlightAware ADS-B
Thu 10:54:36 PM 38.7540 -76.6340 61° Northeast 287 330 7,800 -906 Descending FlightAware ADS-B
Thu 10:55:17 PM 38.7700 -76.5970 61° Northeast 284 327 7,300 -1,083 Descending FlightAware ADS-B
Thu 10:55:48 PM 38.8020 -76.5340 57° Northeast 256 295 6,500 -1,309 Descending FlightAware ADS-B
Thu 10:56:12 PM 38.8290 -76.5240 16° North 230 265 6,100 -1,385 Descending FlightAware ADS-B
Thu 10:56:40 PM 38.8560 -76.5320 347° North 221 254 5,300 -1,472 Descending FlightAware ADS-B
Thu 10:57:05 PM 38.8800 -76.5400 345° North 209 241 4,800 -1,071 Descending FlightAware ADS-B
Thu 10:57:36 PM 38.9080 -76.5480 347° North 201 231 4,300 -800 Descending FlightAware ADS-B
Thu 10:58:05 PM 38.9350 -76.5560 347° North 182 209 4,000 -517 Descending FlightAware ADS-B
Thu 10:58:34 PM 38.9550 -76.5620 347° North 182 209 3,800 -424 Descending FlightAware ADS-B
Thu 10:59:44 PM 39.0080 -76.5790 346° North 174 200 3,300 -300 Descending FlightAware ADS-B
Thu 11:00:14 PM 39.0310 -76.5870 345° North 170 196 3,300 -452 Level FlightAware ADS-B
Thu 11:01:17 PM 39.0700 -76.5990 347° North 166 191 2,600 -667 Descending FlightAware ADS-B

Login

Don't have an account? Register now (free) for customized features, flight alerts, and more!